Time;durP1;ratioP1;P1;durP2;ratioP2;P2;SDS_P1;SDS_P2;PMS_P1;PMS_P2;Temp;Humidity;BMP_temperature;BMP_pressure;BME280_temperature;BME280_humidity;BME280_pressure;Samples;Min_cycle;Max_cycle;Signal;HPM_P1;HPM_P2
2022/12/23 00:01:22;;;;;;;12.07;5.50;;;13.40;99.90;;;;;;5064754;28;20238;-34
2022/12/23 00:03:50;;;;;;;11.30;4.73;;;13.40;99.90;;;;;;5064368;28;20223;-33
2022/12/23 00:06:20;;;;;;;9.30;4.70;;;13.40;99.90;;;;;;5061387;28;20888;-33
2022/12/23 00:08:56;;;;;;;15.03;4.63;;;13.40;99.90;;;;;;5064643;28;20215;-34
2022/12/23 00:11:26;;;;;;;9.43;4.40;;;13.40;99.90;;;;;;5062067;28;20302;-34
2022/12/23 00:16:49;;;;;;;10.57;4.20;;;13.40;99.90;;;;;;5057867;28;20668;-34
2022/12/23 00:19:16;;;;;;;12.87;4.87;;;13.40;99.90;;;;;;5060296;28;20662;-33
2022/12/23 00:21:48;;;;;;;11.53;5.13;;;13.40;99.90;;;;;;5064541;28;20288;-34
2022/12/23 00:24:20;;;;;;;10.10;4.40;;;13.40;99.90;;;;;;5063063;28;20203;-31
2022/12/23 00:26:47;;;;;;;9.33;4.30;;;13.30;99.90;;;;;;5061765;28;20771;-32
2022/12/23 00:29:14;;;;;;;10.90;4.27;;;13.30;99.90;;;;;;5055664;28;20262;-32
2022/12/23 00:31:46;;;;;;;12.87;4.73;;;13.30;99.90;;;;;;5059458;28;20239;-32
2022/12/23 00:34:13;;;;;;;8.63;3.70;;;13.30;99.90;;;;;;5054184;28;20253;-32
2022/12/23 00:36:40;;;;;;;13.10;4.30;;;13.30;99.90;;;;;;5061358;28;20634;-32
2022/12/23 00:44:46;;;;;;;12.37;3.90;;;13.30;99.90;;;;;;5059993;28;20675;-32
2022/12/23 00:49:40;;;;;;;7.80;3.70;;;13.30;99.90;;;;;;5061911;28;20215;-31
2022/12/23 00:50:03;;;;;;;10.37;4.37;;;13.20;99.90;;;;;;5063892;28;20235;-33
2022/12/23 00:52:35;;;;;;;9.73;4.00;;;13.20;99.90;;;;;;5063704;28;20693;-34
2022/12/23 00:55:05;;;;;;;14.50;4.00;;;13.20;99.90;;;;;;5064065;28;20209;-34
2022/12/23 00:57:34;;;;;;;12.13;3.80;;;13.20;99.90;;;;;;5061230;28;20219;-34
2022/12/23 01:00:08;;;;;;;9.23;3.33;;;13.30;99.90;;;;;;5063388;28;20272;-33
2022/12/23 01:05:37;;;;;;;9.93;3.40;;;13.20;99.90;;;;;;5064126;28;20675;-32
2022/12/23 01:08:09;;;;;;;7.80;2.97;;;13.20;99.90;;;;;;5063956;28;20767;-32
2022/12/23 01:10:38;;;;;;;11.40;3.30;;;13.20;99.90;;;;;;5062538;28;20645;-32
2022/12/23 01:13:06;;;;;;;8.60;3.00;;;13.20;99.90;;;;;;5063546;28;20695;-32
2022/12/23 01:15:37;;;;;;;7.60;2.90;;;13.20;99.90;;;;;;5064210;28;20220;-33
2022/12/23 01:18:04;;;;;;;9.33;2.80;;;13.20;99.90;;;;;;5065664;28;20480;-31
2022/12/23 01:20:36;;;;;;;9.53;2.70;;;13.20;99.90;;;;;;5058085;28;20329;-33
2022/12/23 01:23:04;;;;;;;7.07;2.73;;;13.20;99.90;;;;;;5066763;28;20199;-33
2022/12/23 01:25:33;;;;;;;8.90;2.60;;;13.20;99.90;;;;;;5067797;28;20302;-32
2022/12/23 01:28:02;;;;;;;7.87;2.53;;;13.10;99.90;;;;;;5060787;28;20722;-32
2022/12/23 01:30:29;;;;;;;6.73;2.40;;;13.20;99.90;;;;;;5067945;28;20651;-32
2022/12/23 01:32:59;;;;;;;5.57;2.37;;;13.20;99.90;;;;;;5066654;28;20224;-32
2022/12/23 01:35:26;;;;;;;9.43;2.80;;;13.20;99.90;;;;;;5066305;28;20203;-33
2022/12/23 01:37:54;;;;;;;10.17;3.07;;;13.20;99.90;;;;;;5065740;28;20215;-32
2022/12/23 01:40:21;;;;;;;9.60;3.03;;;13.10;99.90;;;;;;5064739;28;20223;-31
2022/12/23 01:42:48;;;;;;;9.80;3.20;;;13.20;99.90;;;;;;5063233;28;20666;-32
2022/12/23 01:45:19;;;;;;;8.00;2.90;;;13.10;99.90;;;;;;5062452;28;20203;-32
2022/12/23 01:47:51;;;;;;;8.67;3.30;;;13.10;99.90;;;;;;5058674;28;20212;-32
2022/12/23 01:50:21;;;;;;;6.20;2.70;;;13.20;99.90;;;;;;5053738;28;20364;-32
2022/12/23 01:53:07;;;;;;;6.57;2.80;;;13.20;99.90;;;;;;5067022;28;20259;-32
2022/12/23 01:55:42;;;;;;;5.83;2.70;;;13.20;99.90;;;;;;5057054;28;20210;-32
2022/12/23 01:58:15;;;;;;;9.27;3.13;;;13.20;99.90;;;;;;5057593;28;20211;-32
2022/12/23 02:03:42;;;;;;;10.37;3.43;;;13.20;99.90;;;;;;5062092;28;20209;-33
2022/12/23 02:09:21;;;;;;;7.00;3.23;;;13.20;99.90;;;;;;5063284;28;20211;-32
2022/12/23 02:12:03;;;;;;;10.53;3.93;;;13.20;99.90;;;;;;5061589;28;20219;-32
2022/12/23 02:17:47;;;;;;;11.53;4.20;;;13.20;99.90;;;;;;5054328;28;20915;-32
2022/12/23 02:21:00;;;;;;;11.40;3.80;;;13.20;99.90;;;;;;5053659;28;20311;-32
2022/12/23 02:24:04;;;;;;;13.23;4.20;;;13.20;99.90;;;;;;5041605;28;20307;-32
2022/12/23 02:26:37;;;;;;;10.47;3.73;;;13.20;99.90;;;;;;5058031;28;20203;-32
2022/12/23 02:29:16;;;;;;;10.07;3.47;;;13.20;99.90;;;;;;5054170;28;20303;-32
2022/12/23 02:31:52;;;;;;;9.40;3.57;;;13.20;99.90;;;;;;5064508;28;20245;-33
2022/12/23 02:34:42;;;;;;;10.70;3.70;;;13.20;99.90;;;;;;5066512;28;20286;-32
2022/12/23 02:37:42;;;;;;;10.80;3.40;;;13.10;99.90;;;;;;5059032;28;20231;-32
2022/12/23 02:40:18;;;;;;;10.07;3.37;;;13.10;99.90;;;;;;5059391;28;20227;-32
2022/12/23 02:43:03;;;;;;;8.73;3.03;;;13.10;99.90;;;;;;5063542;28;20248;-32
2022/12/23 02:45:48;;;;;;;12.00;3.70;;;13.10;99.90;;;;;;5055779;28;20335;-32
2022/12/23 02:48:39;;;;;;;8.90;3.10;;;13.10;99.90;;;;;;5062891;28;20746;-32
2022/12/23 02:51:09;;;;;;;7.87;3.50;;;13.10;99.90;;;;;;5058641;28;20784;-32
2022/12/23 02:53:43;;;;;;;7.97;3.10;;;13.00;99.90;;;;;;5066259;28;20753;-32
2022/12/23 02:56:12;;;;;;;7.93;3.30;;;13.00;99.90;;;;;;5062624;28;20212;-32
2022/12/23 02:59:07;;;;;;;10.30;3.47;;;13.00;99.90;;;;;;5066224;28;20546;-32
2022/12/23 03:01:38;;;;;;;8.87;3.03;;;13.00;99.90;;;;;;5065163;28;20246;-32
2022/12/23 03:04:08;;;;;;;12.20;4.03;;;13.00;99.90;;;;;;5052326;28;20204;-32
2022/12/23 03:06:47;;;;;;;8.93;3.70;;;13.00;99.90;;;;;;5063356;28;20223;-32
2022/12/23 03:09:40;;;;;;;7.13;3.43;;;13.00;99.90;;;;;;5065452;28;20195;-32
2022/12/23 03:12:18;;;;;;;7.93;3.43;;;12.90;99.90;;;;;;5056850;28;20223;-32
2022/12/23 03:14:53;;;;;;;9.37;3.47;;;12.90;99.90;;;;;;5064044;28;20579;-32
2022/12/23 03:18:02;;;;;;;8.03;3.13;;;12.90;99.90;;;;;;5059998;28;20289;-32
2022/12/23 03:20:41;;;;;;;10.80;3.50;;;12.90;99.90;;;;;;5055527;28;20200;-32
2022/12/23 03:23:23;;;;;;;7.63;3.53;;;12.90;99.90;;;;;;5064731;28;20232;-32
2022/12/23 03:26:13;;;;;;;7.80;3.03;;;12.90;99.90;;;;;;5065480;28;20932;-33
2022/12/23 03:28:55;;;;;;;8.00;3.20;;;12.90;99.90;;;;;;5064807;28;20238;-32
2022/12/23 03:31:26;;;;;;;8.33;2.83;;;12.90;99.90;;;;;;5064702;28;20245;-33
2022/12/23 03:33:59;;;;;;;7.57;2.77;;;12.90;99.90;;;;;;5064959;28;20558;-32
2022/12/23 03:36:35;;;;;;;7.00;3.17;;;12.90;99.90;;;;;;5062686;28;20295;-32
2022/12/23 03:39:05;;;;;;;8.33;3.23;;;12.90;99.90;;;;;;5065149;28;20314;-32
2022/12/23 03:41:41;;;;;;;9.67;3.03;;;12.90;99.90;;;;;;5062183;28;20284;-32
2022/12/23 03:44:16;;;;;;;5.07;2.77;;;12.90;99.90;;;;;;5065415;28;20215;-32
2022/12/23 03:46:47;;;;;;;5.70;2.50;;;12.90;99.90;;;;;;5061420;28;20334;-32
2022/12/23 03:49:22;;;;;;;6.90;2.90;;;12.80;99.90;;;;;;5064651;28;20221;-31
2022/12/23 03:52:11;;;;;;;6.20;2.70;;;12.80;99.90;;;;;;5062928;28;20239;-32
2022/12/23 03:54:56;;;;;;;3.67;1.83;;;12.80;99.90;;;;;;5057118;28;20256;-33
2022/12/23 03:57:31;;;;;;;4.53;2.17;;;12.80;99.90;;;;;;5064407;28;20529;-32
2022/12/23 03:59:58;;;;;;;5.03;2.87;;;12.80;99.90;;;;;;5063932;28;20289;-32
2022/12/23 04:02:37;;;;;;;5.80;2.27;;;12.80;99.90;;;;;;5061395;28;20616;-31
2022/12/23 04:05:23;;;;;;;4.90;2.17;;;12.90;99.90;;;;;;5061881;28;20226;-32
2022/12/23 04:08:25;;;;;;;4.87;2.50;;;12.80;99.90;;;;;;5057889;28;20285;-32
2022/12/23 04:10:56;;;;;;;4.47;2.43;;;12.80;99.90;;;;;;5053265;28;20216;-32
2022/12/23 04:13:24;;;;;;;6.97;2.60;;;12.90;99.90;;;;;;5061379;28;20240;-33
2022/12/23 04:15:57;;;;;;;4.90;2.60;;;12.90;99.90;;;;;;5064391;28;20671;-32
2022/12/23 04:18:26;;;;;;;4.30;2.37;;;12.90;99.90;;;;;;5060421;28;20751;-32
2022/12/23 04:20:56;;;;;;;5.27;2.70;;;12.80;99.90;;;;;;5064610;28;20739;-33
2022/12/23 04:23:23;;;;;;;5.07;2.63;;;12.80;99.90;;;;;;5061483;28;20260;-32
2022/12/23 04:25:50;;;;;;;6.83;2.80;;;12.80;99.90;;;;;;5064849;28;20207;-32
2022/12/23 04:28:20;;;;;;;6.40;2.77;;;12.80;99.90;;;;;;5061834;28;20315;-32
2022/12/23 04:30:47;;;;;;;3.90;2.57;;;12.90;99.90;;;;;;5064371;28;20264;-32
2022/12/23 04:33:16;;;;;;;4.13;2.30;;;12.90;99.90;;;;;;5063804;28;20227;-32
2022/12/23 04:35:43;;;;;;;5.57;2.60;;;12.90;99.90;;;;;;5064844;28;20205;-32
2022/12/23 04:38:13;;;;;;;5.07;2.97;;;12.90;99.90;;;;;;5064135;28;20634;-32
2022/12/23 04:40:45;;;;;;;5.63;2.90;;;12.90;99.90;;;;;;5065077;28;20525;-32
2022/12/23 04:43:13;;;;;;;7.00;2.93;;;12.90;99.90;;;;;;5063235;28;20257;-32
2022/12/23 04:45:40;;;;;;;6.63;3.50;;;12.90;99.90;;;;;;5062751;28;20690;-32
2022/12/23 04:48:08;;;;;;;4.03;3.27;;;12.90;99.90;;;;;;5064798;28;20215;-32
2022/12/23 04:50:38;;;;;;;8.67;3.07;;;12.90;99.90;;;;;;5065736;28;20253;-33
2022/12/23 04:53:10;;;;;;;7.90;3.27;;;12.90;99.90;;;;;;5066188;28;20569;-32
2022/12/23 04:55:37;;;;;;;4.87;2.87;;;12.90;99.90;;;;;;5067969;28;20618;-32
2022/12/23 04:58:05;;;;;;;5.80;3.03;;;12.80;99.90;;;;;;5067547;28;20700;-32
2022/12/23 05:00:32;;;;;;;6.73;3.00;;;12.80;99.90;;;;;;5067999;28;20211;-32
2022/12/23 05:03:05;;;;;;;7.63;2.70;;;12.90;99.90;;;;;;5066162;28;20223;-32
2022/12/23 05:05:35;;;;;;;4.90;2.90;;;12.80;99.90;;;;;;5061433;28;20207;-32
2022/12/23 05:08:05;;;;;;;11.83;3.37;;;12.80;99.90;;;;;;5067479;28;20332;-33
2022/12/23 05:10:34;;;;;;;7.07;2.90;;;12.90;99.90;;;;;;5060363;28;20231;-32
2022/12/23 05:13:02;;;;;;;6.73;3.47;;;12.90;99.90;;;;;;5065659;28;20263;-33
2022/12/23 05:15:31;;;;;;;7.90;3.43;;;12.90;99.90;;;;;;5062496;28;20200;-32
2022/12/23 05:17:59;;;;;;;9.27;3.23;;;12.80;99.90;;;;;;5062920;28;20622;-32
2022/12/23 05:20:28;;;;;;;9.67;3.00;;;12.80;99.90;;;;;;5058643;28;20222;-32
2022/12/23 05:22:57;;;;;;;6.63;3.17;;;12.90;99.90;;;;;;5055525;28;20256;-32
2022/12/23 05:25:24;;;;;;;5.97;2.83;;;12.80;99.90;;;;;;5063511;28;20760;-32
2022/12/23 05:27:52;;;;;;;5.17;2.93;;;12.80;99.90;;;;;;5067044;28;20287;-32
2022/12/23 05:30:19;;;;;;;8.53;3.27;;;12.90;99.90;;;;;;5067101;28;20306;-32
2022/12/23 05:32:46;;;;;;;5.97;3.30;;;12.80;99.90;;;;;;5067609;28;20251;-32
2022/12/23 05:35:13;;;;;;;5.87;3.50;;;12.90;99.90;;;;;;5064835;28;20202;-32
2022/12/23 05:37:42;;;;;;;8.57;3.60;;;12.90;99.90;;;;;;5059752;28;20211;-32
2022/12/23 05:40:12;;;;;;;5.03;3.10;;;12.80;99.90;;;;;;5067791;28;20196;-32
2022/12/23 05:42:44;;;;;;;6.03;3.50;;;12.90;99.90;;;;;;5058034;28;20298;-32
2022/12/23 05:45:17;;;;;;;8.00;4.03;;;12.80;99.90;;;;;;5067909;28;20727;-33
2022/12/23 05:47:44;;;;;;;7.43;3.63;;;12.90;99.90;;;;;;5067509;28;20310;-32
2022/12/23 05:50:11;;;;;;;11.73;3.50;;;12.90;99.90;;;;;;5067816;28;20328;-32
2022/12/23 05:52:43;;;;;;;7.63;3.70;;;12.90;99.90;;;;;;5063515;28;20228;-31
2022/12/23 05:55:10;;;;;;;10.13;3.80;;;12.90;99.90;;;;;;5067298;28;20245;-32
2022/12/23 05:57:37;;;;;;;7.53;3.50;;;12.90;99.90;;;;;;5066250;28;20303;-32
2022/12/23 06:00:05;;;;;;;6.73;3.03;;;12.90;99.90;;;;;;5058888;28;20289;-32
2022/12/23 06:02:32;;;;;;;7.20;3.73;;;12.90;99.90;;;;;;5057909;28;20496;-32
2022/12/23 06:05:04;;;;;;;6.50;3.80;;;12.90;99.90;;;;;;5056901;28;20220;-31
2022/12/23 06:07:32;;;;;;;6.83;3.60;;;12.90;99.90;;;;;;5055722;28;20203;-32
2022/12/23 06:09:59;;;;;;;7.60;3.80;;;12.90;99.90;;;;;;5056214;28;20204;-33
2022/12/23 06:12:32;;;;;;;7.87;3.20;;;12.90;99.90;;;;;;5058096;28;20747;-32
2022/12/23 06:14:59;;;;;;;10.13;3.73;;;12.90;99.90;;;;;;5057414;28;20227;-32
2022/12/23 06:17:26;;;;;;;5.97;3.53;;;12.90;99.90;;;;;;5057390;28;20269;-32
2022/12/23 06:19:53;;;;;;;8.33;3.93;;;12.90;99.90;;;;;;5058092;28;20294;-33
2022/12/23 06:22:22;;;;;;;9.67;4.40;;;12.90;99.90;;;;;;5061381;28;20239;-32
2022/12/23 06:24:49;;;;;;;5.70;3.50;;;12.90;99.90;;;;;;5057294;28;20212;-33
2022/12/23 06:27:20;;;;;;;8.93;4.23;;;12.90;99.90;;;;;;5060252;28;20295;-33
2022/12/23 06:29:47;;;;;;;8.27;3.80;;;12.90;99.90;;;;;;5059686;28;20215;-33
2022/12/23 06:32:19;;;;;;;4.43;3.03;;;12.90;99.90;;;;;;5059505;28;20257;-33
2022/12/23 06:34:47;;;;;;;8.33;3.90;;;12.80;99.90;;;;;;5046561;28;20227;-33
2022/12/23 06:37:14;;;;;;;6.80;4.03;;;12.80;99.90;;;;;;5049756;28;20196;-33
2022/12/23 06:39:44;;;;;;;6.83;4.07;;;12.80;99.90;;;;;;5057370;28;20302;-34
2022/12/23 06:42:11;;;;;;;6.23;3.87;;;12.80;99.90;;;;;;5053744;28;20272;-31
2022/12/23 06:44:41;;;;;;;7.77;3.80;;;12.80;99.90;;;;;;5055300;28;20214;-32
2022/12/23 06:47:10;;;;;;;6.63;4.10;;;12.80;99.90;;;;;;5063286;28;20196;-32
2022/12/23 06:49:40;;;;;;;6.50;4.20;;;12.90;99.90;;;;;;5064963;28;20288;-32
2022/12/23 06:52:11;;;;;;;7.20;4.03;;;12.80;99.90;;;;;;5064602;28;20670;-32
2022/12/23 06:54:39;;;;;;;6.43;4.07;;;12.80;99.90;;;;;;5065293;28;20221;-32
2022/12/23 06:57:08;;;;;;;6.00;4.00;;;12.80;99.90;;;;;;5059927;28;20274;-32
2022/12/23 06:59:35;;;;;;;5.83;4.27;;;12.80;99.90;;;;;;5051178;28;20283;-31
2022/12/23 07:02:05;;;;;;;8.37;4.23;;;12.80;99.90;;;;;;5060136;28;20200;-33
2022/12/23 07:04:32;;;;;;;7.47;3.90;;;12.80;99.90;;;;;;5046410;28;20247;-32
2022/12/23 07:07:02;;;;;;;6.97;4.63;;;12.80;99.90;;;;;;5059391;28;20239;-32
2022/12/23 07:09:31;;;;;;;6.90;3.97;;;12.80;99.90;;;;;;5059013;28;20686;-31
2022/12/23 07:12:01;;;;;;;6.40;3.97;;;12.80;99.90;;;;;;5061868;28;20287;-31
2022/12/23 07:14:28;;;;;;;4.60;3.80;;;12.80;99.90;;;;;;5058025;28;21400;-32
2022/12/23 07:16:57;;;;;;;7.27;3.87;;;12.80;99.90;;;;;;5058584;28;20249;-32
2022/12/23 07:19:24;;;;;;;8.37;3.93;;;12.80;99.90;;;;;;5060421;28;20231;-34
2022/12/23 07:21:54;;;;;;;6.20;3.67;;;12.80;99.90;;;;;;5062129;28;20619;-32
2022/12/23 07:24:21;;;;;;;9.67;4.77;;;12.80;99.90;;;;;;5063212;28;20220;-34
2022/12/23 07:26:48;;;;;;;7.57;4.10;;;12.80;99.90;;;;;;5052766;28;20265;-34
2022/12/23 07:29:15;;;;;;;6.63;3.80;;;12.80;99.90;;;;;;5063890;28;20254;-34
2022/12/23 07:31:42;;;;;;;8.00;4.00;;;12.70;99.90;;;;;;5060656;28;20277;-32
2022/12/23 07:34:10;;;;;;;8.27;4.17;;;12.70;99.90;;;;;;5059618;28;20259;-32
2022/12/23 07:36:37;;;;;;;6.57;4.17;;;12.70;99.90;;;;;;5054392;28;20218;-33
2022/12/23 07:39:04;;;;;;;6.87;4.17;;;12.70;99.90;;;;;;5065153;28;20237;-32
2022/12/23 07:41:31;;;;;;;7.17;4.57;;;12.70;99.90;;;;;;5061268;28;20342;-32
2022/12/23 07:44:01;;;;;;;9.70;4.33;;;12.70;99.90;;;;;;5065806;28;20567;-32
2022/12/23 07:46:28;;;;;;;5.77;3.70;;;12.70;99.90;;;;;;5056842;28;20690;-31
2022/12/23 07:49:00;;;;;;;11.70;4.47;;;12.70;99.90;;;;;;5065212;28;20620;-31
2022/12/23 07:51:27;;;;;;;8.47;3.90;;;12.70;99.90;;;;;;5061010;28;20247;-31
2022/12/23 07:53:54;;;;;;;6.57;3.70;;;12.70;99.90;;;;;;5062058;28;20216;-33
2022/12/23 07:56:21;;;;;;;8.20;3.90;;;12.70;99.90;;;;;;5057098;28;20202;-32
2022/12/23 07:58:50;;;;;;;10.33;4.93;;;12.70;99.90;;;;;;5061746;28;20632;-32
2022/12/23 08:01:21;;;;;;;8.83;4.67;;;12.70;99.90;;;;;;5070019;28;20570;-31
2022/12/23 08:03:48;;;;;;;9.20;4.80;;;12.70;99.90;;;;;;5064559;28;20209;-33
2022/12/23 08:06:18;;;;;;;11.50;4.53;;;12.70;99.90;;;;;;5062293;28;20910;-32
2022/12/23 08:08:47;;;;;;;7.90;3.80;;;12.70;99.90;;;;;;5057736;28;20200;-32
2022/12/23 08:11:15;;;;;;;6.77;4.03;;;12.70;99.90;;;;;;5052303;28;20226;-32
2022/12/23 08:13:44;;;;;;;10.67;4.60;;;12.70;99.90;;;;;;5058876;28;20330;-32
2022/12/23 08:16:12;;;;;;;7.57;4.40;;;12.70;99.90;;;;;;5058226;28;20208;-32
2022/12/23 08:18:43;;;;;;;7.90;4.13;;;12.70;99.90;;;;;;5064044;28;20203;-32
2022/12/23 08:21:16;;;;;;;10.60;5.00;;;12.70;99.90;;;;;;5062650;28;20269;-32
2022/12/23 08:23:47;;;;;;;11.90;4.20;;;12.70;99.90;;;;;;5068618;28;20653;-32
2022/12/23 08:26:20;;;;;;;9.53;4.53;;;12.70;99.90;;;;;;5060306;28;20212;-33
2022/12/23 08:28:48;;;;;;;11.00;4.07;;;12.80;99.90;;;;;;5062102;28;20302;-31
2022/12/23 08:31:44;;;;;;;8.73;3.80;;;12.80;99.90;;;;;;5059285;28;20212;-32
2022/12/23 08:34:14;;;;;;;7.40;3.60;;;12.80;99.90;;;;;;5053981;28;20242;-32
2022/12/23 08:36:45;;;;;;;10.87;3.90;;;12.70;99.90;;;;;;5057076;28;20430;-32
2022/12/23 08:39:13;;;;;;;9.33;4.23;;;12.70;99.90;;;;;;5058592;28;20199;-32
2022/12/23 08:41:45;;;;;;;9.97;3.67;;;12.70;99.90;;;;;;5054717;28;20685;-32
2022/12/23 08:44:13;;;;;;;9.13;3.87;;;12.70;99.90;;;;;;5046502;28;20212;-32
2022/12/23 08:46:41;;;;;;;11.33;4.40;;;12.80;99.90;;;;;;5059436;28;20749;-32
2022/12/23 08:49:11;;;;;;;7.40;3.20;;;12.80;99.90;;;;;;5059536;28;20219;-32
2022/12/23 08:51:41;;;;;;;10.97;3.70;;;12.80;99.90;;;;;;5058892;28;20259;-32
2022/12/23 08:54:09;;;;;;;6.17;3.33;;;12.80;99.90;;;;;;5045992;28;20269;-32
2022/12/23 08:56:40;;;;;;;6.63;3.30;;;12.80;99.90;;;;;;5056832;28;20238;-32
2022/12/23 08:59:13;;;;;;;10.43;3.50;;;12.80;99.90;;;;;;5053669;28;20207;-33
2022/12/23 09:01:46;;;;;;;9.40;3.60;;;12.80;99.90;;;;;;5059463;28;20306;-31
2022/12/23 09:04:17;;;;;;;8.63;3.97;;;12.80;99.90;;;;;;5064829;28;20611;-32
2022/12/23 09:06:44;;;;;;;7.60;2.60;;;12.80;99.90;;;;;;5060599;28;20979;-32
2022/12/23 09:09:15;;;;;;;7.40;2.83;;;12.80;99.90;;;;;;5056045;28;20208;-31
2022/12/23 09:11:44;;;;;;;7.10;2.70;;;12.80;99.90;;;;;;5059399;28;20290;-32
2022/12/23 09:14:13;;;;;;;5.83;2.70;;;12.80;99.90;;;;;;5064170;28;20229;-32
2022/12/23 09:16:40;;;;;;;8.23;2.87;;;12.80;99.90;;;;;;5062266;28;20200;-33
2022/12/23 09:19:08;;;;;;;4.83;2.50;;;12.80;99.90;;;;;;5063454;28;20257;-32
2022/12/23 09:21:38;;;;;;;10.50;2.80;;;12.90;99.90;;;;;;5062359;28;20546;-33
2022/12/23 09:24:10;;;;;;;9.60;2.77;;;12.90;99.90;;;;;;5056665;28;20215;-33
2022/12/23 09:26:39;;;;;;;4.93;2.27;;;12.90;99.90;;;;;;5068197;28;20314;-32
2022/12/23 09:29:09;;;;;;;6.30;2.70;;;12.90;99.90;;;;;;5064650;28;20199;-32
2022/12/23 09:31:36;;;;;;;7.03;2.20;;;12.80;99.90;;;;;;5063776;28;20239;-31
2022/12/23 09:34:04;;;;;;;6.37;2.70;;;12.90;99.90;;;;;;5053690;28;20657;-32
2022/12/23 09:36:32;;;;;;;6.77;2.77;;;12.90;99.90;;;;;;5054120;28;20278;-32
2022/12/23 09:39:04;;;;;;;7.40;3.00;;;12.90;99.90;;;;;;5071526;28;20272;-32
2022/12/23 09:42:00;;;;;;;8.83;3.30;;;12.90;99.90;;;;;;5069190;28;20601;-32
2022/12/23 09:44:37;;;;;;;7.13;2.80;;;12.90;99.90;;;;;;5062026;28;20276;-32
2022/12/23 09:47:12;;;;;;;7.33;2.57;;;12.90;99.90;;;;;;5055921;28;20192;-32
2022/12/23 09:49:52;;;;;;;7.80;3.53;;;12.90;99.90;;;;;;5066683;28;20238;-32
2022/12/23 09:52:50;;;;;;;5.87;2.50;;;12.90;99.90;;;;;;5059026;28;21279;-32
2022/12/23 09:55:20;;;;;;;8.17;3.17;;;12.90;99.90;;;;;;5063293;28;20223;-32
2022/12/23 09:57:59;;;;;;;6.27;2.90;;;12.80;99.90;;;;;;5056502;28;20196;-32
2022/12/23 10:00:35;;;;;;;6.53;2.97;;;12.80;99.90;;;;;;5057860;28;20792;-33
2022/12/23 10:03:39;;;;;;;8.17;2.80;;;12.80;99.90;;;;;;5061789;28;20218;-32
2022/12/23 10:06:14;;;;;;;4.77;2.83;;;12.80;99.90;;;;;;5060374;28;20199;-32
2022/12/23 10:08:47;;;;;;;8.07;3.13;;;12.80;99.90;;;;;;5053368;28;20301;-32
2022/12/23 10:11:21;;;;;;;7.03;3.30;;;12.80;99.90;;;;;;5063277;28;20545;-32
2022/12/23 10:13:58;;;;;;;7.27;3.07;;;12.80;99.90;;;;;;5067050;28;20215;-32
2022/12/23 10:16:37;;;;;;;7.93;3.33;;;12.80;99.90;;;;;;5068301;28;20748;-32
2022/12/23 10:19:19;;;;;;;5.00;3.00;;;12.80;99.90;;;;;;5051275;28;20357;-32
2022/12/23 10:21:50;;;;;;;8.20;3.47;;;12.80;99.90;;;;;;5062848;28;20299;-32
2022/12/23 10:24:25;;;;;;;7.00;4.00;;;12.80;99.90;;;;;;5057095;28;20203;-32
2022/12/23 10:26:54;;;;;;;9.03;4.17;;;12.80;99.90;;;;;;5068622;28;20238;-32
2022/12/23 10:29:24;;;;;;;6.37;4.00;;;12.80;99.90;;;;;;5059123;28;20252;-33
2022/12/23 10:32:18;;;;;;;7.77;3.60;;;12.80;99.90;;;;;;5061304;28;20303;-32
2022/12/23 10:35:14;;;;;;;7.90;3.70;;;12.80;99.90;;;;;;5061593;28;20219;-32
2022/12/23 10:38:07;;;;;;;7.20;3.53;;;12.80;99.90;;;;;;5059063;28;20215;-32
2022/12/23 10:40:55;;;;;;;6.80;3.83;;;12.80;99.90;;;;;;5062067;28;20478;-32
2022/12/23 10:43:47;;;;;;;6.00;3.70;;;12.80;99.90;;;;;;5062650;28;20700;-32
2022/12/23 10:46:26;;;;;;;6.73;3.80;;;12.80;99.90;;;;;;5060745;28;20239;-32
2022/12/23 10:49:29;;;;;;;6.73;3.97;;;12.80;99.90;;;;;;5056714;28;20211;-33
2022/12/23 10:52:19;;;;;;;6.83;4.30;;;12.80;99.90;;;;;;5058949;28;20220;-32
2022/12/23 10:54:47;;;;;;;6.40;3.80;;;12.80;99.90;;;;;;5058300;28;20222;-32
2022/12/23 10:57:17;;;;;;;6.17;3.83;;;12.80;99.90;;;;;;5068199;28;20203;-32
2022/12/23 10:59:44;;;;;;;7.10;3.90;;;12.80;99.90;;;;;;5057228;28;20265;-31
2022/12/23 11:02:11;;;;;;;5.97;3.60;;;12.80;99.90;;;;;;5056763;28;20203;-33
2022/12/23 11:04:48;;;;;;;5.57;3.80;;;12.80;99.90;;;;;;5065907;28;20733;-32
2022/12/23 11:07:27;;;;;;;6.17;3.97;;;12.80;99.90;;;;;;5064866;28;20215;-32
2022/12/23 11:10:27;;;;;;;7.10;3.90;;;12.80;99.90;;;;;;5057661;28;20216;-32
2022/12/23 11:12:57;;;;;;;6.77;4.00;;;12.80;99.90;;;;;;5061340;28;20211;-32
2022/12/23 11:15:29;;;;;;;5.33;3.77;;;12.80;99.90;;;;;;5061786;28;20697;-32
2022/12/23 11:18:12;;;;;;;6.27;3.70;;;12.80;99.90;;;;;;5065427;28;20526;-32
2022/12/23 11:20:43;;;;;;;6.67;3.90;;;12.80;99.90;;;;;;5059432;28;20191;-32
2022/12/23 11:23:34;;;;;;;5.13;3.67;;;12.80;99.90;;;;;;5062766;28;20210;-33
2022/12/23 11:26:11;;;;;;;6.13;3.90;;;12.80;99.90;;;;;;5050614;28;20627;-33
2022/12/23 11:28:55;;;;;;;6.67;3.97;;;12.80;99.90;;;;;;5062950;28;20658;-33
2022/12/23 11:31:27;;;;;;;5.90;3.40;;;12.80;99.90;;;;;;5049926;28;20443;-32
2022/12/23 11:34:00;;;;;;;5.50;3.37;;;12.80;99.90;;;;;;5055590;28;20204;-32
2022/12/23 11:36:32;;;;;;;6.17;3.33;;;12.80;99.90;;;;;;5062788;28;20223;-32
2022/12/23 11:39:11;;;;;;;5.10;3.40;;;12.90;99.90;;;;;;5062930;28;20640;-32
2022/12/23 11:41:44;;;;;;;5.53;3.40;;;12.90;99.90;;;;;;5059301;28;20252;-32
2022/12/23 11:44:30;;;;;;;4.97;3.50;;;12.90;99.90;;;;;;5054035;28;20842;-32
2022/12/23 11:47:18;;;;;;;4.73;3.43;;;12.90;99.90;;;;;;5061138;28;20293;-32
2022/12/23 11:50:25;;;;;;;4.63;3.83;;;12.90;99.90;;;;;;5058201;28;20276;-32
2022/12/23 11:53:10;;;;;;;3.83;3.33;;;12.90;99.90;;;;;;5057707;28;20211;-32
2022/12/23 11:55:45;;;;;;;5.10;3.13;;;12.90;99.90;;;;;;5055770;28;20243;-32
2022/12/23 11:58:20;;;;;;;4.70;3.10;;;12.90;99.90;;;;;;5063175;28;20203;-32
2022/12/23 12:00:57;;;;;;;3.87;2.43;;;12.90;99.90;;;;;;5063398;28;20350;-32
2022/12/23 12:03:33;;;;;;;2.30;2.10;;;13.00;99.90;;;;;;5062687;28;20250;-33
2022/12/23 12:06:15;;;;;;;3.23;2.10;;;13.00;99.90;;;;;;5059984;28;20320;-33
2022/12/23 12:08:49;;;;;;;3.77;2.77;;;13.00;99.90;;;;;;5064526;28;20203;-32
2022/12/23 12:11:25;;;;;;;4.30;2.60;;;13.00;99.90;;;;;;5062493;28;20198;-32
2022/12/23 12:14:02;;;;;;;2.53;2.30;;;13.00;99.90;;;;;;5048422;28;21857;-32
2022/12/23 12:16:47;;;;;;;2.40;1.87;;;13.10;99.90;;;;;;5060115;28;20230;-32
2022/12/23 12:19:23;;;;;;;3.97;1.77;;;13.10;99.90;;;;;;5055559;28;20203;-33
2022/12/23 12:21:55;;;;;;;2.10;1.60;;;13.10;99.90;;;;;;5061042;28;20231;-32
2022/12/23 12:24:35;;;;;;;3.00;1.53;;;13.20;99.90;;;;;;5063791;28;20217;-32
2022/12/23 12:27:06;;;;;;;1.37;1.27;;;13.30;99.90;;;;;;5067276;28;20250;-32
2022/12/23 12:29:58;;;;;;;3.00;1.40;;;13.30;99.90;;;;;;5055066;28;20246;-33
2022/12/23 12:32:44;;;;;;;1.53;1.30;;;13.30;99.90;;;;;;5060969;28;20215;-32
2022/12/23 12:35:24;;;;;;;1.83;1.43;;;13.40;99.90;;;;;;5060682;28;20628;-33
2022/12/23 12:38:01;;;;;;;1.23;1.10;;;13.50;99.90;;;;;;5064658;28;20294;-32
2022/12/23 12:40:39;;;;;;;2.37;1.67;;;13.50;99.90;;;;;;5054932;28;20246;-33
2022/12/23 12:43:34;;;;;;;2.23;1.50;;;13.60;99.90;;;;;;5061662;28;20199;-33
2022/12/23 12:46:31;;;;;;;2.80;1.60;;;13.70;99.90;;;;;;5045421;28;20320;-33
2022/12/23 12:49:24;;;;;;;1.87;1.50;;;13.70;99.90;;;;;;5043669;28;20466;-33
2022/12/23 12:52:14;;;;;;;1.50;1.40;;;13.80;99.90;;;;;;5054154;28;20661;-32
2022/12/23 12:54:56;;;;;;;2.87;1.50;;;13.80;99.90;;;;;;5064560;28;20578;-32
2022/12/23 12:57:37;;;;;;;1.93;1.43;;;13.90;99.90;;;;;;5072298;28;20785;-32
2022/12/23 13:00:16;;;;;;;1.97;1.20;;;13.90;99.90;;;;;;5067406;28;20257;-32
2022/12/23 13:02:58;;;;;;;1.33;1.00;;;14.00;99.90;;;;;;5045399;28;20299;-33
2022/12/23 13:05:41;;;;;;;2.27;1.17;;;14.10;99.90;;;;;;5043716;28;20281;-33
2022/12/23 13:08:26;;;;;;;3.77;1.23;;;14.20;99.90;;;;;;5055377;28;20742;-33
2022/12/23 13:11:08;;;;;;;1.17;0.80;;;14.30;99.90;;;;;;5062060;28;20275;-32
2022/12/23 13:13:47;;;;;;;3.60;1.00;;;14.40;99.90;;;;;;5055077;28;20204;-32
2022/12/23 13:16:23;;;;;;;1.27;0.80;;;14.50;99.90;;;;;;5065227;28;20254;-32
2022/12/23 13:19:21;;;;;;;1.00;0.80;;;14.60;99.90;;;;;;5052539;28;20254;-32
2022/12/23 13:22:20;;;;;;;2.73;0.90;;;14.70;99.90;;;;;;5075288;28;20203;-32
2022/12/23 13:25:17;;;;;;;1.53;0.47;;;14.80;99.90;;;;;;5060849;28;20223;-32
2022/12/23 13:28:12;;;;;;;1.27;0.40;;;14.90;99.90;;;;;;5060539;28;20643;-32
2022/12/23 13:30:47;;;;;;;1.10;0.70;;;14.90;99.90;;;;;;5067658;28;20203;-33
2022/12/23 13:33:36;;;;;;;0.93;0.50;;;15.00;99.90;;;;;;5052925;28;20306;-32
2022/12/23 13:36:31;;;;;;;1.20;0.60;;;15.10;99.90;;;;;;5061379;28;20596;-32
2022/12/23 13:39:15;;;;;;;1.30;0.80;;;15.10;99.90;;;;;;5054569;28;20203;-32
2022/12/23 13:41:51;;;;;;;0.60;0.50;;;15.10;99.90;;;;;;5069076;28;20221;-33
2022/12/23 13:44:20;;;;;;;0.87;0.70;;;15.20;99.90;;;;;;5062121;28;20200;-32